CDT,Max TemperatureF,Mean TemperatureF,Min TemperatureF,Max Dew PointF,MeanDew PointF,Min DewpointF,Max Humidity, Mean Humidity, Min Humidity, Max Sea Level PressureIn, Mean Sea Level PressureIn, Min Sea Level PressureIn, Max VisibilityMiles, Mean VisibilityMiles, Min VisibilityMiles, Max Wind SpeedMPH, Mean Wind SpeedMPH, Max Gust SpeedMPH,PrecipitationIn, CloudCover, Events, WindDirDegrees
2014-3-1,71,58,46,53,48,39,96,77,53,30.20,30.15,30.06,10,7,0,13,5,,0.00,2,Fog-Rain,144
2014-3-2,73,60,48,57,52,47,100,83,41,30.19,30.09,29.95,10,4,0,14,5,,0.00,1,Fog-Rain,140
2014-3-3,66,50,35,63,48,28,96,84,68,30.16,30.01,29.90,10,6,0,24,9,31,0.00,7,Fog-Rain,295
2014-3-4,42,38,35,39,34,28,93,80,70,30.15,30.10,30.04,10,7,3,13,7,,0.01,8,Rain,11
2014-3-5,63,52,42,49,46,42,100,79,56,30.13,30.04,29.97,10,7,1,10,5,,0.08,7,Rain-Thunderstorm,62
2014-3-6,55,48,42,51,48,41,100,94,86,30.03,29.92,29.85,10,5,1,17,6,24,0.38,8,Rain-Thunderstorm,34
2014-3-7,57,49,41,44,40,37,100,86,56,30.08,29.99,29.92,10,8,2,13,6,,0.00,7,Rain,350
2014-3-8,66,51,36,49,41,34,96,84,50,30.20,30.12,30.05,10,5,0,10,1,18,0.00,3,Fog,185
2014-3-9,73,60,46,52,49,45,97,77,40,30.21,30.15,30.08,10,7,0,8,3,,0.00,1,Fog,323
2014-3-10,80,64,48,54,50,46,93,72,38,30.13,30.04,29.93,10,8,2,13,3,,0.00,1,,262
2014-3-11,71,63,55,64,58,53,100,85,68,29.93,29.81,29.69,10,7,2,16,5,,0.01,6,Rain,174
2014-3-12,71,58,46,62,54,32,93,77,52,30.06,29.77,29.65,10,8,4,21,11,32,0.00,6,,273
2014-3-13,64,49,34,37,30,26,89,53,26,30.25,30.18,30.08,10,10,5,17,7,26,0.00,1,,351
2014-3-14,66,50,33,46,38,30,89,63,28,30.28,30.20,30.14,10,10,9,17,5,20,0.00,1,,136
2014-3-15,68,57,53,60,56,50,100,93,86,30.13,30.04,29.89,10,7,2,12,5,,0.01,8,Rain,85
2014-3-16,68,64,60,66,62,57,97,91,75,29.92,29.72,29.61,10,4,0,32,13,45,1.71,8,Fog-Rain-Thunderstorm,197
2014-3-17,60,54,48,60,51,43,100,93,83,29.83,29.72,29.61,10,8,3,22,7,30,0.01,8,Rain,293
2014-3-18,64,54,44,46,43,40,93,79,50,30.06,29.90,29.76,10,8,5,13,5,,0.00,4,,312
2014-3-19,72,57,42,50,46,40,97,77,42,30.12,30.05,29.99,10,7,0,13,3,,0.00,2,Fog-Rain,212
2014-3-20,78,62,48,51,48,41,93,66,30,30.10,30.04,29.99,10,9,6,12,3,,0.00,2,Fog-Rain,309
2014-3-21,79,61,44,57,46,36,97,62,24,30.11,30.04,29.99,10,8,0,14,5,18,0.00,4,Fog-Rain,128
2014-3-22,81,69,55,60,57,47,97,80,31,30.09,30.01,29.94,10,5,0,14,2,,0.00,2,Fog-Rain,199
2014-3-23,72,64,55,63,59,47,97,87,61,30.10,30.02,29.94,10,4,0,22,5,25,0.56,6,Fog-Rain-Thunderstorm,283
2014-3-24,73,58,51,48,43,38,77,57,43,30.09,30.00,29.92,10,10,10,12,6,,0.00,6,,53
2014-3-25,64,54,42,48,30,20,80,45,22,30.24,30.06,29.93,10,10,6,28,10,37,0.00,1,,330
2014-3-26,57,44,32,37,24,16,85,46,21,30.37,30.26,30.19,10,9,4,10,4,17,0.00,4,,52
2014-3-27,72,57,42,59,48,32,93,70,48,30.21,30.13,30.04,10,8,2,22,10,28,0.00,7,Rain,124
2014-3-28,64,59,54,63,58,53,100,93,86,30.07,29.97,29.86,10,5,0,23,11,45,1.31,7,Fog-Rain-Thunderstorm,83
2014-3-29,73,64,53,60,54,41,100,81,42,30.12,29.94,29.83,10,7,0,22,7,33,0.86,5,Fog-Rain-Thunderstorm,312
2014-3-30,71,57,43,44,39,35,86,59,27,30.21,30.13,30.08,10,10,6,12,7,18,0.00,1,,327
2014-3-31,77,57,39,45,39,33,89,60,22,30.16,30.11,30.07,10,10,7,12,4,17,0.00,1,,142